createdAt,value
2019-05-17T00:00:07.862Z,56818.48
2019-05-17T00:02:37.396Z,56835.73
2019-05-17T00:05:07.955Z,56794.11
2019-05-17T00:07:36.884Z,56730.15
2019-05-17T00:10:07.264Z,56790.05
2019-05-17T00:12:36.784Z,56831.68
2019-05-17T00:15:07.197Z,56723.04
2019-05-17T00:17:37.699Z,56723.04
2019-05-17T00:20:09.544Z,56724.06
2019-05-17T00:22:38.211Z,56749.44
2019-05-17T00:25:07.514Z,56737.26
2019-05-17T00:27:36.907Z,56737.26
2019-05-17T00:30:12.995Z,56673.30
2019-05-17T00:32:41.612Z,56754.52
2019-05-17T00:35:10.038Z,56706.80
2019-05-17T00:37:38.417Z,56706.80
2019-05-17T00:40:10.780Z,56679.39
2019-05-17T00:42:39.465Z,56662.13
2019-05-17T00:45:08.726Z,56631.67
2019-05-17T00:47:40.026Z,56621.52
2019-05-17T00:50:09.238Z,56621.52
2019-05-17T00:52:37.624Z,56594.11
2019-05-17T00:55:07.680Z,56594.11
2019-05-17T00:57:36.855Z,56544.36
2019-05-17T01:00:08.543Z,56570.76
2019-05-17T01:02:37.279Z,56548.43
2019-05-17T01:05:07.398Z,56548.43
2019-05-17T01:07:37.756Z,56600.20
2019-05-17T01:10:08.149Z,56588.02
2019-05-17T01:12:36.809Z,56604.26
2019-05-17T01:15:10.200Z,56552.48
2019-05-17T01:17:38.925Z,56544.36
2019-05-17T01:20:09.705Z,56589.04
2019-05-17T01:22:38.158Z,56589.04
2019-05-17T01:25:08.158Z,56568.73
2019-05-17T01:27:38.196Z,56543.35
2019-05-17T01:30:07.959Z,56554.52
2019-05-17T01:32:37.413Z,56567.71
2019-05-17T01:35:07.437Z,56547.41
2019-05-17T01:37:36.915Z,56542.33
2019-05-17T01:40:07.085Z,56583.96
2019-05-17T01:42:37.372Z,56598.17
2019-05-17T01:45:08.746Z,56597.16
2019-05-17T01:47:37.215Z,56621.52
2019-05-17T01:50:08.282Z,56644.87
2019-05-17T01:52:37.123Z,56722.03
2019-05-17T01:55:08.223Z,56674.31
2019-05-17T01:57:37.166Z,56669.23
2019-05-17T02:00:12.712Z,56669.23
2019-05-17T02:02:47.126Z,56616.45
2019-05-17T02:05:17.259Z,56573.80
2019-05-17T02:07:46.544Z,56638.78
2019-05-17T02:10:16.920Z,56654.01
2019-05-17T02:12:48.658Z,56617.46
2019-05-17T02:15:16.549Z,56617.46
2019-05-17T02:17:46.873Z,56648.93
2019-05-17T02:20:17.113Z,56623.55
2019-05-17T02:22:47.318Z,56656.04
2019-05-17T02:25:17.768Z,56706.80
2019-05-17T02:27:46.411Z,56739.29
2019-05-17T02:30:15.750Z,56717.96
2019-05-17T02:32:45.528Z,56717.96
2019-05-17T02:35:15.110Z,56664.16
2019-05-17T02:37:44.155Z,56668.22
2019-05-17T02:40:14.836Z,56668.22
2019-05-17T02:42:43.727Z,56622.54
2019-05-17T02:45:13.552Z,56622.54
2019-05-17T02:47:43.601Z,56609.34
2019-05-17T02:50:13.247Z,56609.34
2019-05-17T02:52:43.560Z,56698.68
2019-05-17T02:55:13.364Z,56698.68
2019-05-17T02:57:43.232Z,56655.02
2019-05-17T03:00:14.233Z,56688.52
2019-05-17T03:02:43.783Z,56676.34
2019-05-17T03:05:14.387Z,56676.34
2019-05-17T03:07:44.001Z,56638.78
2019-05-17T03:10:23.008Z,56638.78
2019-05-17T03:12:44.350Z,56651.98
2019-05-17T03:15:13.538Z,56651.98
2019-05-17T03:17:43.441Z,56764.67
2019-05-17T03:20:13.778Z,56764.67
2019-05-17T03:22:44.021Z,56805.28
2019-05-17T03:25:14.016Z,56779.90
2019-05-17T03:27:43.268Z,56774.82
2019-05-17T03:30:17.039Z,56780.91
2019-05-17T03:32:47.656Z,56780.91
2019-05-17T03:35:17.436Z,56884.47
2019-05-17T03:37:45.033Z,56884.47
2019-05-17T03:40:30.686Z,56917.98
2019-05-17T03:42:44.016Z,56893.61
2019-05-17T03:45:14.188Z,57006.30
2019-05-17T03:47:44.407Z,57006.30
2019-05-17T03:50:14.104Z,57106.82
2019-05-17T03:52:44.420Z,57106.82
2019-05-17T03:55:13.695Z,57160.64
2019-05-17T03:57:44.222Z,57178.91
2019-05-17T04:00:13.591Z,57153.53
2019-05-17T04:02:44.378Z,57135.25
2019-05-17T04:05:13.045Z,57110.88
2019-05-17T04:07:43.380Z,57168.76
2019-05-17T04:10:15.045Z,57128.14
2019-05-17T04:12:44.399Z,57123.07
2019-05-17T04:15:14.155Z,57123.07
2019-05-17T04:17:44.109Z,57067.23
2019-05-17T04:20:13.937Z,57067.23
2019-05-17T04:22:44.076Z,57164.70
2019-05-17T04:25:13.629Z,57130.18
2019-05-17T04:27:43.980Z,57145.41
2019-05-17T04:30:14.489Z,57144.39
2019-05-17T04:32:44.143Z,57098.70
2019-05-17T04:35:13.833Z,57129.16
2019-05-17T04:37:44.698Z,57129.16
2019-05-17T04:40:14.494Z,57163.68
2019-05-17T04:42:44.232Z,57163.68
2019-05-17T04:45:13.755Z,57104.79
2019-05-17T04:47:44.409Z,57102.76
2019-05-17T04:50:13.867Z,57053.01
2019-05-17T04:52:43.236Z,57156.57
2019-05-17T04:55:13.849Z,57089.56
2019-05-17T04:57:43.735Z,57063.16
2019-05-17T05:00:13.468Z,57067.23
2019-05-17T05:02:43.747Z,57031.69
2019-05-17T05:05:14.541Z,57033.72
2019-05-17T05:07:43.950Z,57033.72
2019-05-17T05:10:13.641Z,56998.18
2019-05-17T05:12:43.519Z,56998.18
2019-05-17T05:15:13.220Z,57065.20
2019-05-17T05:17:42.600Z,57053.01
2019-05-17T05:20:13.169Z,57114.95
2019-05-17T05:22:42.629Z,57143.37
2019-05-17T05:25:12.457Z,57058.09
2019-05-17T05:27:42.617Z,57058.09
2019-05-17T05:30:12.446Z,57043.87
2019-05-17T05:32:42.795Z,57043.87
2019-05-17T05:35:12.360Z,57054.03
2019-05-17T05:37:42.384Z,57034.73
2019-05-17T05:40:12.745Z,57083.47
2019-05-17T05:42:42.716Z,57079.41
2019-05-17T05:45:12.213Z,57025.60
2019-05-17T05:47:41.733Z,57057.07
2019-05-17T05:50:12.534Z,57056.05
2019-05-17T05:52:42.309Z,57001.23
2019-05-17T05:55:12.273Z,57052.00
2019-05-17T05:57:42.038Z,57073.32
2019-05-17T06:00:13.333Z,57092.61
2019-05-17T06:02:42.205Z,57047.93
2019-05-17T06:05:14.761Z,57025.60
2019-05-17T06:07:42.218Z,57075.35
2019-05-17T06:10:13.370Z,57043.87
2019-05-17T06:12:43.422Z,57032.70
2019-05-17T06:15:13.757Z,57014.43
2019-05-17T06:17:42.998Z,57018.49
2019-05-17T06:20:12.364Z,57003.26
2019-05-17T06:22:42.915Z,57015.45
2019-05-17T06:25:15.177Z,56986.00
2019-05-17T06:27:41.792Z,56932.19
2019-05-17T06:30:12.626Z,56941.32
2019-05-17T06:32:43.246Z,56978.89
2019-05-17T06:35:12.614Z,56907.82
2019-05-17T06:37:42.271Z,56926.10
2019-05-17T06:40:12.990Z,56982.95
2019-05-17T06:42:45.137Z,56933.20
2019-05-17T06:45:12.847Z,56930.16
2019-05-17T06:47:42.559Z,56971.79
2019-05-17T06:50:14.345Z,56894.62
2019-05-17T06:52:43.376Z,56860.10
2019-05-17T06:55:13.195Z,56960.62
2019-05-17T06:57:43.298Z,56948.43
2019-05-17T07:00:19.470Z,56971.79
2019-05-17T07:02:43.106Z,56960.62
2019-05-17T07:05:13.568Z,56951.48
2019-05-17T07:07:41.970Z,56952.49
2019-05-17T07:10:12.664Z,57018.49
2019-05-17T07:12:55.053Z,56960.62
2019-05-17T07:15:11.362Z,56893.61
2019-05-17T07:17:40.147Z,56897.67
2019-05-17T07:20:10.312Z,56887.52
2019-05-17T07:22:40.887Z,56885.48
2019-05-17T07:25:10.802Z,56861.12
2019-05-17T07:27:45.425Z,56897.67
2019-05-17T07:30:10.484Z,56853.00
2019-05-17T07:32:40.546Z,56862.13
2019-05-17T07:35:11.004Z,56842.84
2019-05-17T07:37:40.071Z,56770.76
2019-05-17T07:40:10.713Z,56739.29
2019-05-17T07:42:39.976Z,56690.55
2019-05-17T07:45:10.053Z,56693.60
2019-05-17T07:47:40.365Z,56740.30
2019-05-17T07:50:11.255Z,56679.39
2019-05-17T07:52:40.180Z,56716.95
2019-05-17T07:55:13.346Z,56748.43
2019-05-17T07:57:41.798Z,56677.36
2019-05-17T08:00:11.380Z,56628.62
2019-05-17T08:02:40.414Z,56633.70
2019-05-17T08:05:10.588Z,56680.40
2019-05-17T08:07:40.707Z,56714.92
2019-05-17T08:10:11.091Z,56735.23
2019-05-17T08:12:40.555Z,56616.45
2019-05-17T08:15:10.712Z,56674.31
2019-05-17T08:17:39.956Z,56633.70
2019-05-17T08:20:10.257Z,56642.84
2019-05-17T08:22:39.813Z,56569.75
2019-05-17T08:25:10.151Z,56539.29
2019-05-17T08:27:40.478Z,56607.31
2019-05-17T08:30:10.582Z,56562.64
2019-05-17T08:32:40.211Z,56514.93
2019-05-17T08:35:11.253Z,56554.52
2019-05-17T08:37:42.348Z,56591.06
2019-05-17T08:40:14.889Z,56602.23
2019-05-17T08:42:41.459Z,56561.62
2019-05-17T08:45:10.500Z,56535.23
2019-05-17T08:47:39.611Z,56426.61
2019-05-17T08:50:11.393Z,56465.18
2019-05-17T08:52:40.297Z,56526.09
2019-05-17T08:55:09.859Z,56529.14
2019-05-17T08:57:40.044Z,56498.68
2019-05-17T09:00:10.536Z,56494.62
2019-05-17T09:02:40.983Z,56449.95
2019-05-17T09:05:10.253Z,56642.84
2019-05-17T09:07:40.127Z,56655.02
2019-05-17T09:10:10.208Z,56655.02
2019-05-17T09:12:40.870Z,56587.00
2019-05-17T09:15:10.062Z,56746.39
2019-05-17T09:17:39.721Z,56660.10
2019-05-17T09:20:10.652Z,56735.23
2019-05-17T09:22:39.817Z,56717.96
2019-05-17T09:25:13.506Z,56738.27
2019-05-17T09:27:39.887Z,56830.66
2019-05-17T09:30:09.643Z,56772.79
2019-05-17T09:32:40.427Z,56733.20
2019-05-17T09:35:10.165Z,56771.77
2019-05-17T09:37:41.517Z,56685.48
2019-05-17T09:40:10.018Z,56633.70
2019-05-17T09:42:41.204Z,56728.12
2019-05-17T09:45:09.867Z,56698.68
2019-05-17T09:47:39.653Z,56710.86
2019-05-17T09:50:09.902Z,56691.57
2019-05-17T09:52:40.726Z,56636.75
2019-05-17T09:55:09.925Z,56561.62
2019-05-17T09:57:40.776Z,56499.70
2019-05-17T10:00:10.835Z,56432.70
2019-05-17T10:02:40.323Z,56361.63
2019-05-17T10:05:10.632Z,56195.15
2019-05-17T10:07:40.230Z,56166.73
2019-05-17T10:10:10.381Z,56113.95
2019-05-17T10:12:40.440Z,56193.12
2019-05-17T10:15:10.001Z,56090.60
2019-05-17T10:17:38.665Z,56010.41
2019-05-17T10:20:07.832Z,56104.81
2019-05-17T10:22:36.885Z,56246.92
2019-05-17T10:25:06.707Z,56287.53
2019-05-17T10:27:35.353Z,56216.47
2019-05-17T10:30:05.882Z,56316.97
2019-05-17T10:32:34.272Z,56365.70
2019-05-17T10:35:02.731Z,56548.43
2019-05-17T10:37:31.115Z,56531.17
2019-05-17T10:39:59.511Z,56597.16
2019-05-17T10:42:30.405Z,56631.67
2019-05-17T10:44:59.955Z,56606.29
2019-05-17T10:47:30.085Z,56572.79
2019-05-17T10:49:58.727Z,56496.65
2019-05-17T10:52:29.735Z,56556.55
2019-05-17T10:54:59.642Z,56477.36
2019-05-17T10:57:30.097Z,56420.51
2019-05-17T10:59:59.282Z,56399.20
2019-05-17T11:02:30.209Z,56306.82
2019-05-17T11:05:00.813Z,56221.55
2019-05-17T11:07:28.446Z,56112.93
2019-05-17T11:09:56.852Z,56025.63
2019-05-17T11:12:25.252Z,55996.20
2019-05-17T11:15:09.733Z,55956.61
2019-05-17T11:17:23.839Z,55921.08
2019-05-17T11:19:52.464Z,55932.25
2019-05-17T11:22:21.359Z,55850.03
2019-05-17T11:24:49.929Z,55926.16
2019-05-17T11:27:18.555Z,56076.39
2019-05-17T11:29:46.937Z,56087.55
2019-05-17T11:32:15.437Z,55985.03
2019-05-17T11:34:43.777Z,56043.91
2019-05-17T11:37:12.248Z,56075.37
2019-05-17T11:39:41.015Z,56188.05
2019-05-17T11:42:09.698Z,56145.41
2019-05-17T11:44:38.386Z,56123.08
2019-05-17T11:47:07.094Z,56022.59
2019-05-17T11:49:35.725Z,55988.08
2019-05-17T11:52:04.189Z,56006.35
2019-05-17T11:54:32.593Z,56029.70
2019-05-17T11:57:01.222Z,56066.24
2019-05-17T11:59:29.860Z,56024.62
2019-05-17T12:01:58.260Z,55962.70
2019-05-17T12:04:26.890Z,55927.17
2019-05-17T12:06:55.369Z,55907.89
2019-05-17T12:09:36.488Z,55987.06
2019-05-17T12:11:53.926Z,55971.84
2019-05-17T12:14:22.337Z,55930.22
2019-05-17T12:16:50.963Z,56002.29
2019-05-17T12:19:19.585Z,55979.96
2019-05-17T12:21:47.983Z,55887.59
2019-05-17T12:24:16.370Z,55865.26
2019-05-17T12:26:47.425Z,55842.93
2019-05-17T12:29:15.131Z,55831.76
2019-05-17T12:31:43.531Z,55813.49
2019-05-17T12:34:11.937Z,55738.38
2019-05-17T12:36:43.708Z,55799.28
2019-05-17T12:39:12.258Z,55890.63
2019-05-17T12:41:40.714Z,55941.38
2019-05-17T12:44:09.415Z,55867.29
2019-05-17T12:46:37.814Z,55801.31
2019-05-17T12:49:06.222Z,55753.61
2019-05-17T12:51:34.629Z,55691.69
2019-05-17T12:54:03.020Z,55564.82
2019-05-17T12:56:31.420Z,55363.87
2019-05-17T12:58:59.831Z,55396.34
2019-05-17T13:01:28.524Z,55238.02
2019-05-17T13:03:56.927Z,55298.92
2019-05-17T13:06:25.342Z,55160.89
2019-05-17T13:08:53.782Z,55263.39
2019-05-17T13:11:22.260Z,55171.04
2019-05-17T13:13:50.669Z,55327.33
2019-05-17T13:16:19.496Z,55419.69
2019-05-17T13:18:47.918Z,55335.45
2019-05-17T13:21:16.502Z,55377.06
2019-05-17T13:23:45.010Z,55388.23
2019-05-17T13:26:13.547Z,55405.48
2019-05-17T13:28:42.010Z,55438.97
2019-05-17T13:31:10.521Z,55523.21
2019-05-17T13:33:39.337Z,55524.22
2019-05-17T13:36:07.914Z,55471.45
2019-05-17T13:38:36.315Z,55462.31
2019-05-17T13:41:04.931Z,55412.58
2019-05-17T13:43:33.346Z,55389.24
2019-05-17T13:46:01.752Z,55234.98
2019-05-17T13:48:30.284Z,55330.38
2019-05-17T13:50:58.807Z,55145.67
2019-05-17T13:53:27.476Z,55312.11
2019-05-17T13:55:56.046Z,55266.44
2019-05-17T13:58:24.448Z,55084.78
2019-05-17T14:00:52.944Z,55116.24
2019-05-17T14:03:21.383Z,55310.08
2019-05-17T14:05:52.479Z,55188.30
2019-05-17T14:08:21.013Z,55384.17
2019-05-17T14:10:49.637Z,55392.29
2019-05-17T14:13:18.032Z,55326.32
2019-05-17T14:15:46.885Z,55463.33
2019-05-17T14:18:15.562Z,55285.72
2019-05-17T14:20:45.397Z,55323.27
2019-05-17T14:23:16.609Z,55270.50
2019-05-17T14:25:45.131Z,55561.78
2019-05-17T14:28:14.530Z,55517.12
2019-05-17T14:30:42.999Z,55512.04
2019-05-17T14:33:11.395Z,55509.00
2019-05-17T14:35:39.787Z,55313.12
2019-05-17T14:38:08.195Z,55281.66
2019-05-17T14:41:05.084Z,55377.06
2019-05-17T14:43:06.777Z,55312.11
2019-05-17T14:45:35.255Z,55336.46
2019-05-17T14:48:03.647Z,55350.68
2019-05-17T14:50:32.097Z,55414.61
2019-05-17T14:53:00.470Z,55465.36
2019-05-17T14:55:28.883Z,55626.73
2019-05-17T14:57:57.288Z,55570.91
2019-05-17T15:00:25.943Z,55557.72
2019-05-17T15:02:54.363Z,55522.20
2019-05-17T15:05:22.838Z,55509.00
2019-05-17T15:07:51.242Z,55528.29
2019-05-17T15:10:19.717Z,55745.48
2019-05-17T15:12:48.111Z,55599.33
2019-05-17T15:15:27.142Z,55805.37
2019-05-17T15:17:55.689Z,55770.86
2019-05-17T15:20:24.097Z,55776.95
2019-05-17T15:22:52.538Z,55876.42
2019-05-17T15:25:20.938Z,55539.45
2019-05-17T15:27:49.418Z,55528.29
2019-05-17T15:30:17.954Z,55534.37
2019-05-17T15:32:46.377Z,55696.77
2019-05-17T15:35:16.792Z,55584.11
2019-05-17T15:37:45.353Z,55534.37
2019-05-17T15:40:13.813Z,55569.90
2019-05-17T15:42:44.494Z,55687.63
2019-05-17T15:45:12.594Z,55783.04
2019-05-17T15:47:40.993Z,55874.39
2019-05-17T15:50:10.941Z,56013.45
2019-05-17T15:52:39.336Z,55955.59
2019-05-17T15:55:08.510Z,56085.52
2019-05-17T15:57:36.917Z,56043.91
2019-05-17T16:00:06.780Z,55983.00
2019-05-17T16:02:35.162Z,55961.69
2019-05-17T16:05:04.197Z,56161.65
2019-05-17T16:07:32.793Z,56204.29
2019-05-17T16:10:02.964Z,56098.72
2019-05-17T16:12:31.440Z,56063.19
2019-05-17T16:15:05.759Z,56076.39
2019-05-17T16:17:34.213Z,56165.71
2019-05-17T16:20:02.768Z,56163.68
2019-05-17T16:22:31.173Z,56293.62
2019-05-17T16:24:59.849Z,56213.43
2019-05-17T16:27:28.500Z,56175.87
2019-05-17T16:29:56.906Z,56235.76
2019-05-17T16:32:25.322Z,56126.13
2019-05-17T16:34:53.852Z,56208.35
2019-05-17T16:37:22.245Z,56198.20
2019-05-17T16:39:50.764Z,56190.08
2019-05-17T16:42:19.255Z,56187.03
2019-05-17T16:44:47.630Z,56224.59
2019-05-17T16:47:16.031Z,56150.49
2019-05-17T16:49:44.503Z,56159.62
2019-05-17T16:52:12.895Z,56144.40
2019-05-17T16:54:41.539Z,56204.29
2019-05-17T16:57:10.039Z,56167.75
2019-05-17T16:59:38.526Z,56309.86
2019-05-17T17:02:07.000Z,56259.11
2019-05-17T17:04:35.855Z,56264.18
2019-05-17T17:07:04.399Z,56419.50
2019-05-17T17:09:32.871Z,56372.80
2019-05-17T17:12:01.653Z,56417.47
2019-05-17T17:14:30.341Z,56510.86
2019-05-17T17:16:58.741Z,56554.52
2019-05-17T17:19:27.159Z,56553.50
2019-05-17T17:21:55.562Z,56467.21
2019-05-17T17:24:23.965Z,56483.45
2019-05-17T17:26:52.392Z,56506.80
2019-05-17T17:29:20.785Z,56472.29
2019-05-17T17:31:49.285Z,56425.59
2019-05-17T17:34:17.733Z,56439.80
2019-05-17T17:36:46.630Z,56493.61
2019-05-17T17:39:15.015Z,56502.74
2019-05-17T17:41:43.435Z,56501.73
2019-05-17T17:44:11.886Z,56501.73
2019-05-17T17:46:40.296Z,56529.14
2019-05-17T17:49:08.675Z,56503.76
2019-05-17T17:51:37.095Z,56562.64
2019-05-17T17:54:05.566Z,56560.61
2019-05-17T17:56:33.980Z,56567.71
2019-05-17T17:59:02.633Z,56632.69
2019-05-17T18:01:33.218Z,56624.57
2019-05-17T18:04:01.596Z,56623.55
2019-05-17T18:06:30.023Z,56595.12
2019-05-17T18:08:58.404Z,56633.70
2019-05-17T18:11:26.790Z,56651.98
2019-05-17T18:13:55.356Z,56688.52
2019-05-17T18:16:24.020Z,56698.68
2019-05-17T18:18:52.491Z,56632.69
2019-05-17T18:21:20.982Z,56678.37
2019-05-17T18:23:49.335Z,56700.71
2019-05-17T18:26:18.335Z,56727.11
2019-05-17T18:28:46.683Z,56673.30
2019-05-17T18:31:15.380Z,56714.92
2019-05-17T18:33:43.758Z,56707.81
2019-05-17T18:36:12.141Z,56704.77
2019-05-17T18:38:40.742Z,56651.98
2019-05-17T18:41:09.153Z,56715.94
2019-05-17T18:43:37.625Z,56741.32
2019-05-17T18:46:06.019Z,56714.92
2019-05-17T18:48:34.439Z,56709.84
2019-05-17T18:51:02.893Z,56640.81
2019-05-17T18:53:31.601Z,56672.28
2019-05-17T18:56:00.025Z,56640.81
2019-05-17T18:58:28.440Z,56636.75
2019-05-17T19:00:56.818Z,56632.69
2019-05-17T19:03:25.201Z,56665.18
2019-05-17T19:05:53.619Z,56611.37
2019-05-17T19:08:22.003Z,56598.17
2019-05-17T19:10:50.696Z,56540.30
2019-05-17T19:13:19.149Z,56511.88
2019-05-17T19:15:49.414Z,56508.83
2019-05-17T19:18:17.815Z,56624.57
2019-05-17T19:20:46.599Z,56672.28
2019-05-17T19:23:15.002Z,56661.11
2019-05-17T19:25:43.487Z,56624.57
2019-05-17T19:28:11.889Z,56629.64
2019-05-17T19:30:40.290Z,56617.46
2019-05-17T19:33:09.066Z,56556.55
2019-05-17T19:35:37.804Z,56581.93
2019-05-17T19:38:06.294Z,56518.98
2019-05-17T19:40:34.686Z,56541.32
2019-05-17T19:43:03.167Z,56542.33
2019-05-17T19:45:31.841Z,56514.93
2019-05-17T19:48:00.234Z,56487.51
2019-05-17T19:50:28.703Z,56511.88
2019-05-17T19:52:57.372Z,56514.93
2019-05-17T19:55:25.831Z,56470.26
2019-05-17T19:57:54.577Z,56463.15
2019-05-17T20:00:23.413Z,56495.64
2019-05-17T20:02:51.846Z,56479.39
2019-05-17T20:05:20.240Z,56449.95
2019-05-17T20:07:48.626Z,56454.01
2019-05-17T20:10:17.873Z,56471.27
2019-05-17T20:12:46.278Z,56428.63
2019-05-17T20:15:18.358Z,56454.01
2019-05-17T20:17:47.068Z,56467.21
2019-05-17T20:20:16.441Z,56483.45
2019-05-17T20:22:44.840Z,56472.29
2019-05-17T20:25:13.581Z,56481.42
2019-05-17T20:27:41.978Z,56468.23
2019-05-17T20:30:15.858Z,56432.70
2019-05-17T20:32:44.252Z,56446.91
2019-05-17T20:35:12.990Z,56449.95
2019-05-17T20:37:41.717Z,56457.06
2019-05-17T20:40:10.455Z,56457.06
2019-05-17T20:42:39.014Z,56458.07
2019-05-17T20:45:09.296Z,56456.04
2019-05-17T20:47:37.708Z,56475.33
2019-05-17T20:50:10.332Z,56446.91
2019-05-17T20:52:39.061Z,56439.80
2019-05-17T20:55:08.209Z,56453.00
2019-05-17T20:57:36.852Z,56445.89
2019-05-17T21:00:09.125Z,56444.88
2019-05-17T21:02:37.527Z,56491.57
2019-05-17T21:05:07.826Z,56458.07
2019-05-17T21:07:36.229Z,56471.27
2019-05-17T21:10:05.984Z,56503.76
2019-05-17T21:12:34.375Z,56506.80
2019-05-17T21:15:02.962Z,56502.74
2019-05-17T21:17:32.301Z,56533.20
2019-05-17T21:20:00.691Z,56564.67
2019-05-17T21:22:29.099Z,56536.24
2019-05-17T21:25:01.955Z,56559.59
2019-05-17T21:27:30.580Z,56551.47
2019-05-17T21:29:59.051Z,56565.68
2019-05-17T21:32:27.461Z,56620.50
2019-05-17T21:34:55.884Z,56606.29
2019-05-17T21:37:24.276Z,56610.36
2019-05-17T21:39:52.722Z,56604.26
2019-05-17T21:42:21.214Z,56645.89
2019-05-17T21:44:52.677Z,56612.38
2019-05-17T21:47:23.027Z,56643.86
2019-05-17T21:49:51.808Z,56639.79
2019-05-17T21:52:20.182Z,56616.45
2019-05-17T21:54:48.637Z,56619.49
2019-05-17T21:57:17.312Z,56626.60
2019-05-17T21:59:45.997Z,56659.08
2019-05-17T22:02:14.471Z,56612.38
2019-05-17T22:04:42.862Z,56611.37
2019-05-17T22:07:11.576Z,56622.54
2019-05-17T22:09:39.951Z,56645.89
2019-05-17T22:12:10.003Z,56651.98
2019-05-17T22:14:38.396Z,56688.52
2019-05-17T22:17:07.021Z,56689.54
2019-05-17T22:19:35.730Z,56657.05
2019-05-17T22:22:04.187Z,56666.19
2019-05-17T22:24:32.606Z,56659.08
2019-05-17T22:27:01.013Z,56671.27
2019-05-17T22:29:29.668Z,56655.02
2019-05-17T22:31:58.079Z,56644.87
2019-05-17T22:34:26.478Z,56645.89
2019-05-17T22:36:54.878Z,56692.59
2019-05-17T22:39:23.614Z,56646.90
2019-05-17T22:41:52.302Z,56684.46
2019-05-17T22:44:20.961Z,56666.19
2019-05-17T22:46:49.691Z,56650.96
2019-05-17T22:49:18.091Z,56657.05
2019-05-17T22:51:46.492Z,56683.45
2019-05-17T22:54:15.161Z,56674.31
2019-05-17T22:56:43.701Z,56670.25
2019-05-17T22:59:12.141Z,56697.66
2019-05-17T23:01:40.535Z,56691.57
2019-05-17T23:04:09.186Z,56706.80
2019-05-17T23:06:37.880Z,56745.38
2019-05-17T23:09:06.921Z,56723.04
2019-05-17T23:11:35.480Z,56747.41
2019-05-17T23:14:04.768Z,56769.75
2019-05-17T23:16:33.224Z,56768.73
2019-05-17T23:19:08.772Z,56767.71
2019-05-17T23:21:37.892Z,56791.07
2019-05-17T23:24:06.642Z,56806.29
2019-05-17T23:26:35.107Z,56750.45
2019-05-17T23:29:03.591Z,56765.68
2019-05-17T23:31:32.111Z,56757.56
2019-05-17T23:34:00.955Z,56749.44
2019-05-17T23:36:30.886Z,56794.11
2019-05-17T23:38:59.281Z,56782.94
2019-05-17T23:41:27.681Z,56765.68
2019-05-17T23:43:56.075Z,56771.77
2019-05-17T23:46:24.486Z,56760.61
2019-05-17T23:48:53.177Z,56748.43
2019-05-17T23:51:21.876Z,56779.90
2019-05-17T23:53:50.560Z,56748.43
2019-05-17T23:56:19.014Z,56746.39
2019-05-17T23:58:47.453Z,56702.74
